Time;durP1;ratioP1;P1;durP2;ratioP2;P2;SDS_P1;SDS_P2;PMS_P1;PMS_P2;Temp;Humidity;BMP_temperature;BMP_pressure;BME280_temperature;BME280_humidity;BME280_pressure;Samples;Min_cycle;Max_cycle;Signal;HPM_P1;HPM_P2
2021/10/03 00:00:36;;;;;;;;;;;;;;;6.34;91.54;98351.88;1780727;79;20412;-82
2021/10/03 00:03:06;;;;;;;;;;;;;;;6.30;91.93;98350.72;1782131;80;20153;-82
2021/10/03 00:05:32;;;;;;;;;;;;;;;6.28;91.87;98356.06;1752566;80;20192;-82
2021/10/03 00:07:59;;;;;;;;;;;;;;;6.25;90.67;98349.83;1781898;80;21165;-82
2021/10/03 00:10:28;;;;;;;;;;;;;;;6.16;91.46;98349.42;1781775;79;20185;-83
2021/10/03 00:12:54;;;;;;;;;;;;;;;6.14;91.63;98350.98;1752786;80;20176;-83
2021/10/03 00:15:20;;;;;;;;;;;;;;;6.15;91.12;98355.83;1753436;80;20133;-82
2021/10/03 00:17:48;;;;;;;;;;;;;;;6.05;92.19;98356.47;1782247;80;20167;-82
2021/10/03 00:20:14;;;;;;;;;;;;;;;6.07;92.27;98354.91;1782076;79;21702;-82
2021/10/03 00:22:40;;;;;;;;;;;;;;;6.13;92.24;98339.94;1782178;80;20196;-82
2021/10/03 00:25:07;;;;;;;;;;;;;;;6.20;92.61;98342.48;1753676;79;20671;-83
2021/10/03 00:27:32;;;;;;;;;;;;;;;6.27;92.10;98341.80;1782160;80;20439;-82
2021/10/03 00:29:58;;;;;;;;;;;;;;;6.13;91.25;98338.59;1781962;79;20695;-82
2021/10/03 00:32:24;;;;;;;;;;;;;;;6.15;90.95;98335.15;1782192;80;21152;-82
2021/10/03 00:34:50;;;;;;;;;;;;;;;6.13;90.74;98339.13;1781874;79;20186;-83
2021/10/03 00:37:16;;;;;;;;;;;;;;;6.08;90.93;98339.87;1782277;80;20182;-82
2021/10/03 00:39:41;;;;;;;;;;;;;;;5.96;90.62;98343.12;1752360;80;20171;-82
2021/10/03 00:42:07;;;;;;;;;;;;;;;5.89;90.51;98349.16;1781864;79;20179;-82
2021/10/03 00:44:33;;;;;;;;;;;;;;;5.78;90.87;98350.84;1781969;80;21077;-82
2021/10/03 00:46:59;;;;;;;;;;;;;;;5.79;90.60;98351.12;1782350;79;20162;-82
2021/10/03 00:49:24;;;;;;;;;;;;;;;5.74;91.60;98344.33;1782363;80;20194;-82
2021/10/03 00:51:50;;;;;;;;;;;;;;;5.71;91.29;98350.70;1752376;80;20246;-82
2021/10/03 00:54:16;;;;;;;;;;;;;;;5.65;92.16;98341.73;1753794;80;20282;-82
2021/10/03 00:56:42;;;;;;;;;;;;;;;5.59;92.33;98342.16;1781942;79;21808;-82
2021/10/03 00:59:08;;;;;;;;;;;;;;;5.58;91.60;98339.19;1781990;80;20166;-83
2021/10/03 01:01:34;;;;;;;;;;;;;;;5.59;90.59;98347.53;1781922;79;20179;-83
2021/10/03 01:03:59;;;;;;;;;;;;;;;5.57;90.48;98340.25;1782791;80;20171;-82
2021/10/03 01:06:25;;;;;;;;;;;;;;;5.60;92.47;98342.45;1781823;79;20186;-83
2021/10/03 01:08:51;;;;;;;;;;;;;;;5.59;92.44;98338.66;1781884;80;21740;-82
2021/10/03 01:11:17;;;;;;;;;;;;;;;5.59;91.55;98334.63;1781620;79;20312;-82
2021/10/03 01:13:47;;;;;;;;;;;;;;;5.55;91.56;98333.45;1782082;80;20187;-82
2021/10/03 01:16:14;;;;;;;;;;;;;;;5.52;91.14;98330.73;1781862;79;20164;-82
2021/10/03 01:18:39;;;;;;;;;;;;;;;5.48;91.80;98334.96;1782693;80;20195;-82
2021/10/03 01:21:06;;;;;;;;;;;;;;;5.52;91.55;98330.73;1752711;80;21063;-83
2021/10/03 01:23:32;;;;;;;;;;;;;;;5.51;92.32;98328.28;1782187;80;20404;-82
2021/10/03 01:25:58;;;;;;;;;;;;;;;5.49;91.91;98325.03;1781867;79;20141;-82
2021/10/03 01:28:24;;;;;;;;;;;;;;;5.50;91.71;98334.72;1782217;80;20421;-82
2021/10/03 01:30:51;;;;;;;;;;;;;;;5.50;92.49;98330.69;1782384;79;20219;-83
2021/10/03 01:33:17;;;;;;;;;;;;;;;5.50;91.12;98323.97;1752468;80;21858;-83
2021/10/03 01:35:43;;;;;;;;;;;;;;;5.42;91.76;98329.72;1781843;79;20157;-82
2021/10/03 01:38:11;;;;;;;;;;;;;;;5.42;92.11;98322.47;1782064;80;20219;-82
2021/10/03 01:40:37;;;;;;;;;;;;;;;5.45;91.47;98318.48;1782360;79;20129;-82
2021/10/03 01:43:03;;;;;;;;;;;;;;;5.37;91.46;98316.98;1782131;80;20223;-83
2021/10/03 01:45:29;;;;;;;;;;;;;;;5.34;92.00;98310.22;1782436;79;21155;-82
2021/10/03 01:48:15;;;;;;;;;;;;;;;5.35;90.96;98304.32;1782121;80;20170;-82
2021/10/03 01:50:45;;;;;;;;;;;;;;;5.31;91.13;98295.93;1781758;79;20128;-82
2021/10/03 01:53:12;;;;;;;;;;;;;;;5.25;91.51;98298.75;1782641;80;20164;-82
2021/10/03 01:55:38;;;;;;;;;;;;;;;5.24;91.11;98297.94;1781905;79;20069;-82
2021/10/03 01:58:04;;;;;;;;;;;;;;;5.25;91.02;98296.88;1782077;80;21042;-82
2021/10/03 02:00:30;;;;;;;;;;;;;;;5.25;91.32;98306.28;1753742;79;20246;-82
2021/10/03 02:02:57;;;;;;;;;;;;;;;5.21;91.11;98299.77;1782287;80;20258;-82
2021/10/03 02:05:23;;;;;;;;;;;;;;;5.14;91.25;98295.05;1753298;79;20420;-82
2021/10/03 02:07:49;;;;;;;;;;;;;;;5.12;91.21;98294.45;1753954;80;20175;-82
2021/10/03 02:10:15;;;;;;;;;;;;;;;5.14;90.95;98298.27;1781744;79;21101;-82
2021/10/03 02:12:41;;;;;;;;;;;;;;;5.06;90.90;98291.39;1782060;80;20301;-82
2021/10/03 02:15:07;;;;;;;;;;;;;;;5.02;90.99;98291.56;1782070;80;20209;-82
2021/10/03 02:17:33;;;;;;;;;;;;;;;4.95;91.21;98286.84;1781835;79;20161;-82
2021/10/03 02:19:59;;;;;;;;;;;;;;;4.83;91.97;98286.87;1782026;80;20175;-82
2021/10/03 02:22:25;;;;;;;;;;;;;;;4.86;92.13;98284.23;1753398;80;21849;-82
2021/10/03 02:24:56;;;;;;;;;;;;;;;4.86;91.91;98293.10;1781604;80;20447;-82
2021/10/03 02:27:19;;;;;;;;;;;;;;;4.79;92.55;98289.23;1752311;80;20184;-82
2021/10/03 02:29:45;;;;;;;;;;;;;;;4.78;92.60;98285.41;1782166;80;20139;-82
2021/10/03 02:32:10;;;;;;;;;;;;;;;4.73;93.08;98283.45;1728064;80;20171;-82
2021/10/03 02:34:36;;;;;;;;;;;;;;;4.70;92.45;98277.22;1782115;80;21095;-82
2021/10/03 02:37:02;;;;;;;;;;;;;;;4.63;93.03;98267.66;1781963;79;20199;-82
2021/10/03 02:39:28;;;;;;;;;;;;;;;4.55;92.53;98267.48;1781997;80;20309;-82
2021/10/03 02:41:54;;;;;;;;;;;;;;;4.53;92.38;98268.25;1781871;79;20159;-82
2021/10/03 02:44:19;;;;;;;;;;;;;;;4.51;91.97;98259.59;1781996;80;20250;-82
2021/10/03 02:46:45;;;;;;;;;;;;;;;4.50;92.67;98257.44;1781849;79;21152;-83
2021/10/03 02:49:11;;;;;;;;;;;;;;;4.51;91.29;98257.72;1782279;80;20186;-82
2021/10/03 02:51:37;;;;;;;;;;;;;;;4.53;90.86;98262.35;1782112;79;20179;-82
2021/10/03 02:54:03;;;;;;;;;;;;;;;4.53;90.81;98254.30;1782088;80;20277;-82
2021/10/03 02:56:29;;;;;;;;;;;;;;;4.55;90.70;98255.41;1781793;79;20723;-82
2021/10/03 02:58:55;;;;;;;;;;;;;;;4.53;90.98;98256.17;1782112;80;21239;-82
2021/10/03 03:01:21;;;;;;;;;;;;;;;4.58;92.39;98254.11;1781832;79;20183;-82
2021/10/03 03:03:47;;;;;;;;;;;;;;;4.68;92.25;98248.95;1782076;80;20186;-82
2021/10/03 03:06:13;;;;;;;;;;;;;;;4.73;92.54;98253.10;1752119;80;20159;-82
2021/10/03 03:08:38;;;;;;;;;;;;;;;4.75;92.07;98250.46;1781833;80;20441;-82
2021/10/03 03:11:04;;;;;;;;;;;;;;;4.74;92.26;98255.55;1781754;79;21262;-82
2021/10/03 03:13:30;;;;;;;;;;;;;;;4.73;91.90;98252.58;1782623;80;20186;-82
2021/10/03 03:15:56;;;;;;;;;;;;;;;4.70;92.22;98249.53;1781709;79;20198;-82
2021/10/03 03:18:22;;;;;;;;;;;;;;;4.73;91.31;98259.81;1782153;80;20168;-82
2021/10/03 03:20:48;;;;;;;;;;;;;;;4.70;91.18;98257.08;1782003;79;20167;-82
2021/10/03 03:23:14;;;;;;;;;;;;;;;4.70;91.69;98260.27;1781881;80;21209;-82
2021/10/03 03:25:40;;;;;;;;;;;;;;;4.63;90.89;98253.70;1781626;79;20151;-82
2021/10/03 03:28:07;;;;;;;;;;;;;;;4.56;90.41;98254.34;1782340;80;20284;-82
2021/10/03 03:30:33;;;;;;;;;;;;;;;4.41;91.36;98258.03;1781735;80;20404;-82
2021/10/03 03:32:59;;;;;;;;;;;;;;;4.37;90.98;98256.88;1781814;79;20168;-82
2021/10/03 03:35:25;;;;;;;;;;;;;;;4.25;91.04;98250.97;1781892;80;21176;-83
2021/10/03 03:37:51;;;;;;;;;;;;;;;4.13;92.09;98243.98;1781734;79;20179;-82
2021/10/03 03:40:18;;;;;;;;;;;;;;;4.12;92.30;98244.51;1752405;80;20141;-82
2021/10/03 03:42:44;;;;;;;;;;;;;;;4.10;92.04;98238.56;1781649;79;20436;-83
2021/10/03 03:45:10;;;;;;;;;;;;;;;4.02;91.76;98241.59;1781813;80;20156;-82
2021/10/03 03:47:36;;;;;;;;;;;;;;;3.94;91.96;98247.30;1781777;79;21130;-82
2021/10/03 03:50:03;;;;;;;;;;;;;;;3.91;93.08;98246.39;1781990;80;20238;-82
2021/10/03 03:52:28;;;;;;;;;;;;;;;3.87;92.63;98239.35;1782456;79;20137;-82
2021/10/03 03:54:54;;;;;;;;;;;;;;;3.88;93.15;98234.28;1782260;80;20155;-82
2021/10/03 03:57:20;;;;;;;;;;;;;;;3.94;92.73;98240.06;1781922;79;20143;-82
2021/10/03 03:59:46;;;;;;;;;;;;;;;4.00;92.12;98240.16;1781886;80;22007;-82
2021/10/03 04:02:12;;;;;;;;;;;;;;;4.06;91.92;98244.61;1781694;79;20750;-82
2021/10/03 04:04:38;;;;;;;;;;;;;;;4.10;92.50;98245.27;1781961;80;20179;-82
2021/10/03 04:07:04;;;;;;;;;;;;;;;4.07;93.16;98248.40;1781943;79;20167;-82
2021/10/03 04:09:31;;;;;;;;;;;;;;;4.06;92.28;98245.95;1782109;80;20145;-82
2021/10/03 04:11:56;;;;;;;;;;;;;;;4.05;91.75;98240.30;1756462;80;21366;-82
2021/10/03 04:14:22;;;;;;;;;;;;;;;4.03;93.28;98241.88;1782850;80;20171;-82
2021/10/03 04:16:48;;;;;;;;;;;;;;;4.06;92.49;98249.97;1782459;79;20245;-83
2021/10/03 04:19:14;;;;;;;;;;;;;;;4.09;93.14;98254.86;1754951;80;20186;-82
2021/10/03 04:21:39;;;;;;;;;;;;;;;4.07;93.41;98253.77;1782397;79;20183;-82
2021/10/03 04:24:05;;;;;;;;;;;;;;;4.11;93.57;98260.84;1782658;80;21765;-82
2021/10/03 04:26:31;;;;;;;;;;;;;;;4.10;92.42;98248.45;1782203;79;20742;-82
2021/10/03 04:28:57;;;;;;;;;;;;;;;4.09;92.62;98256.20;1782476;80;20222;-83
2021/10/03 04:31:23;;;;;;;;;;;;;;;4.14;92.82;98250.97;1782748;79;20141;-83
2021/10/03 04:33:49;;;;;;;;;;;;;;;4.12;92.09;98247.72;1782559;80;20187;-83
2021/10/03 04:36:15;;;;;;;;;;;;;;;4.06;91.57;98249.97;1782437;79;21071;-82
2021/10/03 04:38:40;;;;;;;;;;;;;;;4.03;91.06;98252.61;1782408;80;20229;-83
2021/10/03 04:41:07;;;;;;;;;;;;;;;4.02;90.75;98264.91;1782231;79;20246;-83
2021/10/03 04:43:32;;;;;;;;;;;;;;;3.89;90.91;98262.72;1782608;80;20192;-83
2021/10/03 04:45:58;;;;;;;;;;;;;;;3.91;91.40;98258.46;1782468;79;20191;-82
2021/10/03 04:48:24;;;;;;;;;;;;;;;3.91;92.20;98259.80;1782542;80;21077;-83
2021/10/03 04:50:50;;;;;;;;;;;;;;;3.84;91.48;98254.53;1782256;80;20222;-82
2021/10/03 04:53:15;;;;;;;;;;;;;;;3.87;90.91;98258.12;1782191;79;20167;-83
2021/10/03 04:55:41;;;;;;;;;;;;;;;3.88;90.91;98263.77;1782227;80;20159;-82
2021/10/03 04:58:07;;;;;;;;;;;;;;;3.93;90.89;98266.59;1756055;80;20214;-83
2021/10/03 05:00:33;;;;;;;;;;;;;;;3.98;91.12;98261.05;1782704;80;21120;-83
2021/10/03 05:02:59;;;;;;;;;;;;;;;3.99;90.96;98262.14;1755861;80;20174;-82
2021/10/03 05:05:24;;;;;;;;;;;;;;;3.98;91.30;98263.20;1783093;80;20226;-82
2021/10/03 05:07:50;;;;;;;;;;;;;;;3.89;91.86;98261.91;1782497;79;20131;-83
2021/10/03 05:10:16;;;;;;;;;;;;;;;3.90;91.96;98259.51;1782368;80;20166;-83
2021/10/03 05:12:42;;;;;;;;;;;;;;;3.91;93.47;98259.80;1782554;79;21194;-83
2021/10/03 05:15:08;;;;;;;;;;;;;;;3.96;91.75;98255.91;1782599;80;20187;-83
2021/10/03 05:17:34;;;;;;;;;;;;;;;4.02;91.42;98263.57;1782428;79;20144;-82
2021/10/03 05:19:59;;;;;;;;;;;;;;;4.04;90.72;98263.63;1782424;80;20179;-82
2021/10/03 05:22:25;;;;;;;;;;;;;;;4.04;92.92;98264.96;1782494;79;20159;-83
2021/10/03 05:24:52;;;;;;;;;;;;;;;4.09;91.96;98268.27;1782710;80;21086;-83
2021/10/03 05:27:18;;;;;;;;;;;;;;;4.10;92.10;98261.36;1782424;79;20409;-83
2021/10/03 05:29:44;;;;;;;;;;;;;;;4.07;92.10;98259.65;1782610;80;20144;-83
2021/10/03 05:32:09;;;;;;;;;;;;;;;4.06;92.06;98262.05;1756200;80;20536;-83
2021/10/03 05:34:35;;;;;;;;;;;;;;;4.02;92.17;98262.23;1782524;80;20148;-83
2021/10/03 05:37:01;;;;;;;;;;;;;;;4.07;92.11;98255.63;1782710;79;21171;-83
2021/10/03 05:39:27;;;;;;;;;;;;;;;4.06;92.60;98259.36;1782773;80;20170;-82
2021/10/03 05:41:52;;;;;;;;;;;;;;;4.15;92.14;98256.09;1782599;79;20234;-83
2021/10/03 05:44:18;;;;;;;;;;;;;;;4.20;92.40;98254.89;1782776;80;20229;-83
2021/10/03 05:46:44;;;;;;;;;;;;;;;4.27;93.22;98257.44;1782552;79;20219;-83
2021/10/03 05:49:09;;;;;;;;;;;;;;;4.32;94.14;98252.20;1782614;80;21088;-82
2021/10/03 05:51:35;;;;;;;;;;;;;;;4.46;93.49;98249.58;1783121;79;20190;-82
2021/10/03 05:54:02;;;;;;;;;;;;;;;4.61;93.18;98250.41;1782688;80;20206;-83
2021/10/03 05:56:28;;;;;;;;;;;;;;;4.75;91.99;98255.02;1782320;79;20195;-82
2021/10/03 05:58:54;;;;;;;;;;;;;;;4.79;92.56;98255.66;1782749;80;20720;-83
2021/10/03 06:01:19;;;;;;;;;;;;;;;4.86;92.51;98252.02;1782338;79;21196;-82
2021/10/03 06:03:45;;;;;;;;;;;;;;;4.82;92.63;98240.94;1782530;80;20198;-82
2021/10/03 06:06:11;;;;;;;;;;;;;;;4.89;92.51;98248.87;1782349;80;20690;-83
2021/10/03 06:08:37;;;;;;;;;;;;;;;4.89;93.09;98252.38;1755854;80;20568;-82
2021/10/03 06:11:03;;;;;;;;;;;;;;;4.95;92.45;98248.71;1781796;80;20214;-82
2021/10/03 06:13:28;;;;;;;;;;;;;;;4.99;92.86;98242.36;1781778;79;21967;-83
2021/10/03 06:15:58;;;;;;;;;;;;;;;5.08;92.70;98250.33;1781695;80;20163;-83
2021/10/03 06:18:24;;;;;;;;;;;;;;;5.15;93.68;98251.54;1781836;79;20168;-82
2021/10/03 06:20:50;;;;;;;;;;;;;;;5.23;93.15;98247.95;1781728;80;20223;-83
2021/10/03 06:23:16;;;;;;;;;;;;;;;5.31;93.54;98251.59;1753501;80;20129;-82
2021/10/03 06:25:42;;;;;;;;;;;;;;;5.40;93.23;98238.59;1782032;80;21150;-82
2021/10/03 06:28:07;;;;;;;;;;;;;;;5.46;93.86;98239.48;1752069;80;21055;-83
2021/10/03 06:30:34;;;;;;;;;;;;;;;5.57;93.28;98234.06;1752533;80;20199;-83
2021/10/03 06:33:01;;;;;;;;;;;;;;;5.71;93.01;98243.96;1781807;79;20145;-82
2021/10/03 06:35:28;;;;;;;;;;;;;;;5.83;91.96;98245.25;1781974;80;20409;-82
2021/10/03 06:37:55;;;;;;;;;;;;;;;5.99;92.32;98245.83;1781006;79;21220;-82
2021/10/03 06:40:21;;;;;;;;;;;;;;;6.17;93.53;98243.41;1781762;80;20545;-83
2021/10/03 06:42:47;;;;;;;;;;;;;;;6.38;92.43;98247.21;1781815;79;20246;-82
2021/10/03 06:45:12;;;;;;;;;;;;;;;6.59;92.75;98244.30;1781868;80;20615;-82
2021/10/03 06:47:38;;;;;;;;;;;;;;;6.78;92.91;98246.44;1781865;79;20155;-83
2021/10/03 06:50:05;;;;;;;;;;;;;;;7.22;91.72;98246.97;1782461;80;21204;-83
2021/10/03 06:52:30;;;;;;;;;;;;;;;7.45;91.92;98243.18;1753412;80;20137;-83
2021/10/03 06:54:56;;;;;;;;;;;;;;;7.79;91.81;98240.55;1782109;80;20273;-83
2021/10/03 06:57:22;;;;;;;;;;;;;;;8.32;91.80;98238.00;1781877;79;20628;-83
2021/10/03 06:59:48;;;;;;;;;;;;;;;8.54;91.13;98232.48;1781881;80;20266;-83
2021/10/03 07:02:23;;;;;;;;;;;;;;;9.09;89.18;98233.84;1753621;80;21131;-83
2021/10/03 07:04:49;;;;;;;;;;;;;;;9.94;87.15;98222.12;1780623;80;20429;-83
2021/10/03 07:07:15;;;;;;;;;;;;;;;11.00;87.23;98224.66;1782038;79;20667;-83
2021/10/03 07:09:41;;;;;;;;;;;;;;;11.86;77.48;98221.22;1781847;80;20679;-83
2021/10/03 07:12:07;;;;;;;;;;;;;;;12.84;76.69;98221.41;1781712;79;20643;-83
2021/10/03 07:14:32;;;;;;;;;;;;;;;13.77;78.59;98219.14;1781931;80;21187;-83
2021/10/03 07:16:58;;;;;;;;;;;;;;;14.17;72.37;98214.94;1781928;79;20209;-83
2021/10/03 07:19:24;;;;;;;;;;;;;;;14.93;68.60;98212.21;1782004;80;20679;-83
2021/10/03 07:21:49;;;;;;;;;;;;;;;15.57;67.35;98206.79;1781903;79;20187;-83
2021/10/03 07:24:15;;;;;;;;;;;;;;;16.44;70.79;98205.53;1782094;80;20262;-83
2021/10/03 07:26:41;;;;;;;;;;;;;;;17.10;72.45;98208.42;1782072;80;21911;-83
2021/10/03 07:29:07;;;;;;;;;;;;;;;17.34;65.53;98204.67;1781718;79;20191;-83
2021/10/03 07:31:33;;;;;;;;;;;;;;;17.88;62.16;98207.20;1781864;80;20194;-84
2021/10/03 07:33:59;;;;;;;;;;;;;;;18.31;60.89;98191.50;1781766;79;20125;-84
2021/10/03 07:36:25;;;;;;;;;;;;;;;18.89;65.67;98187.88;1781866;80;20139;-84
2021/10/03 07:38:51;;;;;;;;;;;;;;;19.02;61.60;98190.95;1751949;80;22116;-84
2021/10/03 07:41:17;;;;;;;;;;;;;;;19.58;64.53;98189.45;1781748;80;20161;-84
2021/10/03 07:43:43;;;;;;;;;;;;;;;19.48;55.56;98189.79;1781697;79;20136;-84
2021/10/03 07:46:12;;;;;;;;;;;;;;;19.34;54.12;98187.31;1781732;80;20163;-84
2021/10/03 07:48:38;;;;;;;;;;;;;;;20.04;58.32;98183.48;1753531;80;20181;-84
2021/10/03 07:51:04;;;;;;;;;;;;;;;20.53;51.98;98180.35;1781755;80;21085;-84
2021/10/03 07:53:30;;;;;;;;;;;;;;;21.29;57.06;98181.11;1781807;79;20667;-84
2021/10/03 07:55:56;;;;;;;;;;;;;;;22.04;60.70;98190.80;1781853;80;20145;-84
2021/10/03 07:58:22;;;;;;;;;;;;;;;22.65;56.08;98179.50;1782111;79;20180;-84
2021/10/03 08:00:48;;;;;;;;;;;;;;;23.76;57.42;98180.20;1781884;80;20175;-84
2021/10/03 08:03:14;;;;;;;;;;;;;;;24.37;55.25;98184.44;1781679;79;21122;-84
2021/10/03 08:05:40;;;;;;;;;;;;;;;24.73;51.40;98185.08;1781626;80;20151;-84
2021/10/03 08:08:06;;;;;;;;;;;;;;;25.59;50.83;98184.49;1781892;79;20194;-84
2021/10/03 08:10:31;;;;;;;;;;;;;;;26.40;41.01;98182.57;1781958;80;20147;-85
2021/10/03 08:12:57;;;;;;;;;;;;;;;26.51;41.22;98184.09;1782581;79;20151;-85
2021/10/03 08:15:27;;;;;;;;;;;;;;;27.07;47.49;98179.66;1782664;80;21090;-85
2021/10/03 08:17:51;;;;;;;;;;;;;;;26.98;50.07;98177.18;1782431;79;20192;-85
2021/10/03 08:20:18;;;;;;;;;;;;;;;26.67;41.19;98177.13;1782412;80;20179;-85
2021/10/03 08:22:44;;;;;;;;;;;;;;;27.21;39.09;98172.03;1782649;79;20424;-85
2021/10/03 08:25:10;;;;;;;;;;;;;;;27.93;38.83;98169.09;1782503;80;20144;-85
2021/10/03 08:27:36;;;;;;;;;;;;;;;28.02;42.88;98173.70;1756148;80;21146;-85
2021/10/03 08:30:02;;;;;;;;;;;;;;;28.03;42.36;98168.34;1782431;80;20191;-85
2021/10/03 08:32:28;;;;;;;;;;;;;;;28.54;35.54;98166.76;1782518;79;20145;-85
2021/10/03 08:34:54;;;;;;;;;;;;;;;28.71;32.82;98158.19;1729998;80;20195;-85
2021/10/03 08:37:19;;;;;;;;;;;;;;;29.39;41.29;98160.98;1782736;80;20207;-85
2021/10/03 08:39:45;;;;;;;;;;;;;;;29.32;39.49;98150.66;1782594;80;21897;-84
2021/10/03 08:42:11;;;;;;;;;;;;;;;29.40;37.30;98153.64;1782721;79;20194;-86
2021/10/03 08:44:37;;;;;;;;;;;;;;;29.91;35.29;98155.12;1782546;80;20183;-85
2021/10/03 08:47:04;;;;;;;;;;;;;;;28.64;35.94;98146.45;1782884;80;20171;-85
2021/10/03 08:49:29;;;;;;;;;;;;;;;27.03;40.64;98146.05;1782391;79;20145;-84
2021/10/03 08:51:55;;;;;;;;;;;;;;;25.54;41.22;98145.38;1783355;80;21062;-85
2021/10/03 08:54:21;;;;;;;;;;;;;;;23.91;40.08;98149.68;1756035;80;20210;-84
2021/10/03 08:56:47;;;;;;;;;;;;;;;22.72;41.10;98146.52;1782918;80;20207;-86
2021/10/03 08:59:12;;;;;;;;;;;;;;;21.97;45.05;98154.17;1782428;79;20159;-84
2021/10/03 09:01:49;;;;;;;;;;;;;;;21.09;45.80;98151.69;1782856;80;20277;-85
2021/10/03 09:04:35;;;;;;;;;;;;;;;20.21;47.77;98145.61;1782367;79;21149;-84
2021/10/03 09:07:11;;;;;;;;;;;;;;;19.59;48.92;98148.45;1782581;80;20145;-85
2021/10/03 09:09:59;;;;;;;;;;;;;;;19.03;49.20;98143.70;1782246;79;20132;-85
2021/10/03 09:12:34;;;;;;;;;;;;;;;18.63;49.50;98136.35;1782024;79;20211;-85
2021/10/03 09:15:02;;;;;;;;;;;;;;;18.28;51.88;98141.39;1782041;80;20129;-84
2021/10/03 09:17:29;;;;;;;;;;;;;;;18.08;50.98;98135.24;1782131;79;21118;-85
2021/10/03 09:20:15;;;;;;;;;;;;;;;17.86;52.11;98135.43;1782155;80;20424;-85
2021/10/03 09:23:02;;;;;;;;;;;;;;;17.66;53.87;98139.61;1782027;79;20240;-85
2021/10/03 09:25:41;;;;;;;;;;;;;;;17.53;55.65;98137.86;1781858;80;20203;-84
2021/10/03 09:28:12;;;;;;;;;;;;;;;17.54;53.10;98134.80;1782384;79;20155;-84
2021/10/03 09:31:00;;;;;;;;;;;;;;;17.53;53.33;98133.19;1753544;80;21041;-85
2021/10/03 09:33:47;;;;;;;;;;;;;;;17.53;53.41;98133.19;1781805;79;20159;-85
2021/10/03 09:36:21;;;;;;;;;;;;;;;17.45;54.96;98132.61;1753114;80;20149;-84
2021/10/03 09:38:58;;;;;;;;;;;;;;;17.40;55.26;98123.98;1752408;80;20436;-84
2021/10/03 09:41:29;;;;;;;;;;;;;;;17.32;55.88;98110.28;1782007;80;20133;-84
2021/10/03 09:44:01;;;;;;;;;;;;;;;17.42;55.23;98108.59;1780644;79;21124;-83
2021/10/03 09:46:47;;;;;;;;;;;;;;;17.43;56.19;98101.44;1752221;80;20435;-84
2021/10/03 09:49:29;;;;;;;;;;;;;;;17.47;56.63;98097.48;1781983;79;20443;-84
2021/10/03 09:51:54;;;;;;;;;;;;;;;17.58;54.84;98093.28;1781992;80;20416;-83
2021/10/03 09:54:21;;;;;;;;;;;;;;;17.63;55.88;98092.33;1781846;79;20160;-84
2021/10/03 09:56:48;;;;;;;;;;;;;;;17.66;56.79;98086.19;1782126;80;21092;-85
2021/10/03 09:59:14;;;;;;;;;;;;;;;17.67;56.52;98080.37;1752414;80;20096;-83
2021/10/03 10:01:44;;;;;;;;;;;;;;;17.71;55.02;98086.86;1782231;80;20219;-84
2021/10/03 10:04:11;;;;;;;;;;;;;;;17.82;55.48;98083.21;1782243;79;20125;-84
2021/10/03 10:06:37;;;;;;;;;;;;;;;17.88;56.20;98070.15;1782230;80;20412;-83
2021/10/03 10:09:09;;;;;;;;;;;;;;;17.90;52.39;98076.10;1752265;80;21144;-83
2021/10/03 10:11:39;;;;;;;;;;;;;;;17.98;53.47;98069.80;1781471;80;20133;-85
2021/10/03 10:14:04;;;;;;;;;;;;;;;18.04;53.61;98073.41;1781852;79;20145;-83
2021/10/03 10:16:41;;;;;;;;;;;;;;;18.07;52.79;98067.03;1781912;80;20230;-84
2021/10/03 10:19:24;;;;;;;;;;;;;;;18.12;52.33;98064.92;1781712;79;20408;-83
2021/10/03 10:22:11;;;;;;;;;;;;;;;18.19;48.07;98059.72;1782182;80;21087;-85
2021/10/03 10:24:47;;;;;;;;;;;;;;;18.30;49.89;98062.36;1781685;79;20420;-85
2021/10/03 10:27:25;;;;;;;;;;;;;;;18.35;50.90;98058.61;1782183;80;20180;-85
2021/10/03 10:29:52;;;;;;;;;;;;;;;18.39;51.75;98057.41;1781687;79;20156;-85
2021/10/03 10:32:18;;;;;;;;;;;;;;;18.43;52.45;98055.02;1782103;80;20168;-83
2021/10/03 10:35:07;;;;;;;;;;;;;;;18.46;50.00;98053.02;1781946;79;21067;-86
2021/10/03 10:37:55;;;;;;;;;;;;;;;18.52;51.04;98053.61;1781779;80;20108;-83
2021/10/03 10:40:25;;;;;;;;;;;;;;;18.62;48.24;98054.59;1781979;80;20409;-85
2021/10/03 10:42:53;;;;;;;;;;;;;;;18.72;48.41;98053.47;1782142;79;20157;-85
2021/10/03 10:45:35;;;;;;;;;;;;;;;18.75;48.16;98047.30;1782343;80;20141;-83
2021/10/03 10:48:15;;;;;;;;;;;;;;;18.83;49.75;98042.33;1782173;79;21273;-83
2021/10/03 10:50:56;;;;;;;;;;;;;;;18.86;47.47;98036.97;1780789;80;20137;-86
2021/10/03 10:53:24;;;;;;;;;;;;;;;18.97;47.31;98036.03;1755856;79;20189;-85
2021/10/03 10:56:11;;;;;;;;;;;;;;;19.00;47.39;98035.92;1753571;80;20401;-86
2021/10/03 10:58:38;;;;;;;;;;;;;;;19.03;50.43;98031.92;1781781;79;20157;-86
2021/10/03 11:01:11;;;;;;;;;;;;;;;19.06;48.15;98031.84;1753554;80;21144;-83
2021/10/03 11:03:54;;;;;;;;;;;;;;;19.10;51.00;98023.16;1781772;79;20117;-83
2021/10/03 11:06:24;;;;;;;;;;;;;;;19.14;51.79;98029.57;1781416;80;20389;-83
2021/10/03 11:08:59;;;;;;;;;;;;;;;19.15;50.24;98021.02;1781800;79;20476;-85
2021/10/03 11:11:57;;;;;;;;;;;;;;;19.23;50.20;98022.63;1781695;80;20385;-83
2021/10/03 11:14:25;;;;;;;;;;;;;;;19.36;47.72;98018.24;1753508;80;21855;-85
2021/10/03 11:16:53;;;;;;;;;;;;;;;19.49;50.19;98021.06;1781921;80;20208;-83
2021/10/03 11:19:37;;;;;;;;;;;;;;;19.52;49.44;98015.67;1781854;79;20129;-85
2021/10/03 11:22:08;;;;;;;;;;;;;;;19.56;49.24;98018.54;1782190;80;20161;-83
2021/10/03 11:24:37;;;;;;;;;;;;;;;19.65;48.79;98016.53;1781702;79;20152;-84
2021/10/03 11:27:11;;;;;;;;;;;;;;;19.68;48.45;98013.93;1781545;80;21049;-83
2021/10/03 11:29:39;;;;;;;;;;;;;;;19.67;46.76;98010.95;1781710;79;20117;-83
2021/10/03 11:32:10;;;;;;;;;;;;;;;19.70;47.12;98014.39;1781653;80;20127;-85
2021/10/03 11:34:47;;;;;;;;;;;;;;;19.70;47.72;98010.27;1781661;79;20129;-84
2021/10/03 11:37:16;;;;;;;;;;;;;;;19.71;48.84;98014.61;1782038;80;20160;-83
2021/10/03 11:39:44;;;;;;;;;;;;;;;19.70;49.46;98013.02;1781705;79;21218;-83
2021/10/03 11:42:13;;;;;;;;;;;;;;;19.73;50.02;98002.70;1781830;80;20157;-85
2021/10/03 11:44:40;;;;;;;;;;;;;;;19.73;48.14;98004.65;1781270;79;20121;-83
2021/10/03 11:47:08;;;;;;;;;;;;;;;19.86;48.22;97996.67;1782149;80;20139;-85
2021/10/03 11:49:36;;;;;;;;;;;;;;;19.93;48.97;98000.25;1780731;79;20112;-83
2021/10/03 11:52:03;;;;;;;;;;;;;;;19.91;47.76;98000.59;1753553;80;21777;-83
2021/10/03 11:54:46;;;;;;;;;;;;;;;19.90;48.67;97992.09;1781640;79;20133;-85
2021/10/03 11:57:15;;;;;;;;;;;;;;;19.89;48.84;97999.30;1781485;80;20208;-83
2021/10/03 11:59:41;;;;;;;;;;;;;;;19.91;47.72;97998.38;1781072;79;20088;-83
2021/10/03 12:02:15;;;;;;;;;;;;;;;19.93;48.47;97987.88;1781996;80;20208;-85
2021/10/03 12:04:57;;;;;;;;;;;;;;;19.95;48.42;97991.08;1781742;79;21270;-85
2021/10/03 12:07:24;;;;;;;;;;;;;;;19.95;48.67;97994.63;1782168;80;20144;-85
2021/10/03 12:09:57;;;;;;;;;;;;;;;20.00;47.50;97989.48;1781746;79;20436;-85
2021/10/03 12:12:46;;;;;;;;;;;;;;;20.04;47.82;97990.39;1781727;80;20112;-83
2021/10/03 12:15:32;;;;;;;;;;;;;;;20.07;48.11;97995.20;1780638;79;20183;-83
2021/10/03 12:17:58;;;;;;;;;;;;;;;20.06;46.40;97996.92;1781115;80;21044;-85
2021/10/03 12:20:24;;;;;;;;;;;;;;;20.06;45.09;97987.30;1781852;79;20711;-83
2021/10/03 12:22:56;;;;;;;;;;;;;;;20.10;47.22;97992.36;1782147;80;20187;-86
2021/10/03 12:25:39;;;;;;;;;;;;;;;20.10;48.60;97983.53;1781765;79;20208;-83
2021/10/03 12:28:05;;;;;;;;;;;;;;;20.08;46.38;97987.75;1781547;80;20112;-83
2021/10/03 12:30:45;;;;;;;;;;;;;;;20.09;47.13;97982.50;1781742;79;21083;-85
2021/10/03 12:33:11;;;;;;;;;;;;;;;20.12;48.81;97981.81;1782110;80;20187;-85
2021/10/03 12:35:38;;;;;;;;;;;;;;;20.25;46.92;97982.03;1781737;79;20194;-84
2021/10/03 12:38:04;;;;;;;;;;;;;;;20.32;47.04;97975.38;1782161;80;20164;-86
2021/10/03 12:40:30;;;;;;;;;;;;;;;20.42;46.77;97972.16;1781838;79;20135;-84
2021/10/03 12:42:57;;;;;;;;;;;;;;;20.56;47.20;97966.34;1781956;80;21083;-83
2021/10/03 12:45:23;;;;;;;;;;;;;;;20.62;46.81;97967.72;1781912;79;20401;-85
2021/10/03 12:47:48;;;;;;;;;;;;;;;20.63;47.44;97969.89;1782475;80;20214;-83
2021/10/03 12:50:14;;;;;;;;;;;;;;;20.60;47.15;97971.40;1753608;80;20223;-83
2021/10/03 12:52:41;;;;;;;;;;;;;;;20.63;48.28;97963.81;1782102;80;20198;-84
2021/10/03 12:55:07;;;;;;;;;;;;;;;20.64;46.81;97968.16;1781769;79;21701;-83
2021/10/03 12:57:33;;;;;;;;;;;;;;;20.76;46.66;97964.58;1782259;80;20184;-83